createdAt,value
2019-03-27T00:02:20.315Z,33.48
2019-03-27T00:04:47.125Z,31.33
2019-03-27T00:07:13.441Z,17.45
2019-03-27T00:09:40.227Z,19.85
2019-03-27T00:12:06.703Z,17.70
2019-03-27T00:14:33.311Z,15.85
2019-03-27T00:16:59.975Z,19.02
2019-03-27T00:19:26.434Z,18.98
2019-03-27T00:21:52.920Z,35.63
2019-03-27T00:24:19.407Z,34.98
2019-03-27T00:26:45.874Z,44.83
2019-03-27T00:29:12.425Z,36.35
2019-03-27T00:31:38.739Z,41.48
2019-03-27T00:34:05.186Z,20.75
2019-03-27T00:36:31.591Z,15.32
2019-03-27T00:38:57.987Z,31.20
2019-03-27T00:41:24.523Z,31.12
2019-03-27T00:43:50.799Z,36.90
2019-03-27T00:46:17.543Z,21.00
2019-03-27T00:48:43.919Z,12.75
2019-03-27T00:51:10.266Z,14.30
2019-03-27T00:53:36.981Z,14.03
2019-03-27T00:56:03.787Z,22.10
2019-03-27T00:58:30.167Z,22.00
2019-03-27T01:01:06.659Z,21.10
2019-03-27T01:03:33.506Z,22.05
2019-03-27T01:06:00.287Z,23.65
2019-03-27T01:08:26.663Z,21.77
2019-03-27T01:10:53.394Z,18.60
2019-03-27T01:13:19.724Z,23.27
2019-03-27T01:15:46.219Z,28.27
2019-03-27T01:18:12.639Z,30.70
2019-03-27T01:20:39.740Z,31.07
2019-03-27T01:23:06.218Z,34.27
2019-03-27T01:25:32.494Z,56.80
2019-03-27T01:27:58.936Z,43.52
2019-03-27T01:30:25.218Z,33.18
2019-03-27T01:32:51.635Z,27.67
2019-03-27T01:35:17.911Z,28.92
2019-03-27T01:37:44.467Z,32.40
2019-03-27T01:40:11.042Z,33.92
2019-03-27T01:42:37.682Z,41.98
2019-03-27T01:45:06.883Z,40.33
2019-03-27T01:47:33.349Z,32.13
2019-03-27T01:49:59.823Z,34.53
2019-03-27T01:52:26.218Z,48.48
2019-03-27T01:54:52.720Z,66.90
2019-03-27T01:57:19.163Z,69.07
2019-03-27T01:59:45.826Z,50.05
2019-03-27T02:02:12.527Z,57.83
2019-03-27T02:04:39.011Z,53.80
2019-03-27T02:07:05.510Z,58.63
2019-03-27T02:09:31.931Z,55.35
2019-03-27T02:11:58.320Z,62.62
2019-03-27T02:14:24.859Z,54.70
2019-03-27T02:16:51.690Z,44.50
2019-03-27T02:19:18.479Z,44.15
2019-03-27T02:21:44.963Z,38.38
2019-03-27T02:24:11.446Z,39.10
2019-03-27T02:26:38.087Z,49.90
2019-03-27T02:29:04.873Z,34.25
2019-03-27T02:31:31.502Z,34.58
2019-03-27T02:33:58.579Z,27.80
2019-03-27T02:36:25.660Z,30.17
2019-03-27T02:38:52.144Z,27.42
2019-03-27T02:41:18.576Z,24.32
2019-03-27T02:43:46.095Z,23.77
2019-03-27T02:46:24.429Z,30.20
2019-03-27T02:48:41.846Z,39.92
2019-03-27T02:51:08.389Z,41.88
2019-03-27T02:53:35.404Z,30.90
2019-03-27T02:56:02.586Z,21.27
2019-03-27T02:58:29.431Z,19.20
2019-03-27T03:00:56.349Z,24.30
2019-03-27T03:03:22.792Z,30.25
2019-03-27T03:05:49.407Z,28.60
2019-03-27T03:08:15.884Z,28.00
2019-03-27T03:10:45.918Z,42.17
2019-03-27T03:13:12.703Z,36.58
2019-03-27T03:15:39.441Z,26.95
2019-03-27T03:18:06.276Z,26.25
2019-03-27T03:20:33.849Z,31.05
2019-03-27T03:23:00.717Z,31.97
2019-03-27T03:25:27.359Z,30.40
2019-03-27T03:27:54.145Z,30.97
2019-03-27T03:30:21.576Z,31.82
2019-03-27T03:32:48.125Z,29.18
2019-03-27T03:35:15.208Z,36.90
2019-03-27T03:37:41.788Z,32.50
2019-03-27T03:40:10.109Z,31.73
2019-03-27T03:42:37.118Z,32.88
2019-03-27T03:45:05.648Z,28.12
2019-03-27T03:47:33.004Z,38.45
2019-03-27T03:49:59.584Z,31.77
2019-03-27T03:52:26.394Z,30.10
2019-03-27T03:54:53.388Z,29.85
2019-03-27T03:57:22.053Z,33.75
2019-03-27T03:59:50.275Z,33.10
2019-03-27T04:02:18.082Z,35.10
2019-03-27T04:04:46.840Z,39.20
2019-03-27T04:07:13.332Z,37.88
2019-03-27T04:09:39.828Z,35.68
2019-03-27T04:12:06.304Z,37.03
2019-03-27T04:14:32.705Z,76.82
2019-03-27T04:17:15.768Z,66.05
2019-03-27T04:19:27.916Z,90.57
2019-03-27T04:21:54.831Z,71.97
2019-03-27T04:24:21.304Z,40.15
2019-03-27T04:26:47.820Z,51.77
2019-03-27T04:29:14.408Z,47.27
2019-03-27T04:31:40.813Z,43.10
2019-03-27T04:34:07.209Z,46.95
2019-03-27T04:36:33.847Z,48.08
2019-03-27T04:39:00.432Z,38.80
2019-03-27T04:41:27.095Z,31.35
2019-03-27T04:43:53.523Z,37.05
2019-03-27T04:46:19.917Z,37.13
2019-03-27T04:48:46.355Z,44.33
2019-03-27T04:51:12.835Z,50.40
2019-03-27T04:53:39.358Z,52.27
2019-03-27T04:56:06.053Z,38.50
2019-03-27T04:58:32.567Z,38.08
2019-03-27T05:00:59.488Z,34.60
2019-03-27T05:03:25.860Z,31.62
2019-03-27T05:05:52.376Z,36.25
2019-03-27T05:08:19.046Z,37.20
2019-03-27T05:10:45.566Z,36.10
2019-03-27T05:13:12.134Z,43.38
2019-03-27T05:15:38.928Z,48.87
2019-03-27T05:18:05.446Z,47.20
2019-03-27T05:20:31.819Z,47.50
2019-03-27T05:22:58.192Z,40.90
2019-03-27T05:25:24.621Z,40.43
2019-03-27T05:27:51.411Z,37.93
2019-03-27T05:30:26.630Z,39.95
2019-03-27T05:32:53.271Z,51.37
2019-03-27T05:35:19.722Z,55.48
2019-03-27T05:37:46.138Z,62.17
2019-03-27T05:40:12.786Z,59.95
2019-03-27T05:42:39.266Z,50.38
2019-03-27T05:45:05.813Z,42.33
2019-03-27T05:47:32.088Z,39.60
2019-03-27T05:49:58.920Z,39.58
2019-03-27T05:52:25.192Z,48.63
2019-03-27T05:54:51.490Z,43.30
2019-03-27T05:57:18.090Z,39.63
2019-03-27T05:59:44.500Z,40.45
2019-03-27T06:02:10.811Z,39.30
2019-03-27T06:04:37.436Z,35.10
2019-03-27T06:07:03.967Z,28.60
2019-03-27T06:09:30.438Z,29.85
2019-03-27T06:11:56.868Z,27.30
2019-03-27T06:14:23.936Z,28.65
2019-03-27T06:16:50.939Z,25.45
2019-03-27T06:19:17.321Z,31.15
2019-03-27T06:21:43.732Z,25.60
2019-03-27T06:24:10.827Z,25.10
2019-03-27T06:26:37.307Z,21.62
2019-03-27T06:29:03.980Z,20.60
2019-03-27T06:31:30.354Z,19.50
2019-03-27T06:33:56.787Z,36.25
2019-03-27T06:36:23.483Z,39.78
2019-03-27T06:38:50.377Z,37.23
2019-03-27T06:41:17.286Z,47.58
2019-03-27T06:43:43.663Z,48.52
2019-03-27T06:46:10.262Z,27.22
2019-03-27T06:48:37.629Z,30.92
2019-03-27T06:51:04.249Z,24.47
2019-03-27T06:53:30.942Z,47.58
2019-03-27T06:55:57.228Z,21.93
2019-03-27T06:58:23.633Z,14.47
2019-03-27T07:00:50.007Z,32.10
2019-03-27T07:03:16.779Z,56.00
2019-03-27T07:05:43.279Z,23.47
2019-03-27T07:08:09.887Z,14.87
2019-03-27T07:10:36.302Z,30.23
2019-03-27T07:13:03.067Z,20.97
2019-03-27T07:15:29.456Z,20.97
2019-03-27T07:17:56.647Z,8.78
2019-03-27T07:20:23.163Z,10.75
2019-03-27T07:22:49.628Z,11.60
2019-03-27T07:25:16.013Z,9.78
2019-03-27T07:27:42.423Z,10.30
2019-03-27T07:30:10.359Z,9.63
2019-03-27T07:32:37.064Z,11.08
2019-03-27T07:35:05.055Z,50.67
2019-03-27T07:37:31.452Z,61.63
2019-03-27T07:39:57.958Z,37.03
2019-03-27T07:42:24.527Z,20.97
2019-03-27T07:44:51.099Z,14.13
2019-03-27T07:47:17.375Z,13.40
2019-03-27T07:49:43.680Z,15.53
2019-03-27T07:52:10.460Z,10.03
2019-03-27T07:54:37.107Z,10.18
2019-03-27T07:57:03.584Z,10.85
2019-03-27T07:59:30.168Z,8.35
2019-03-27T08:01:56.932Z,10.68
2019-03-27T08:04:23.242Z,10.85
2019-03-27T08:06:49.713Z,6.75
2019-03-27T08:09:16.249Z,9.28
2019-03-27T08:11:42.845Z,6.15
2019-03-27T08:14:09.554Z,4.80
2019-03-27T08:16:35.969Z,5.30
2019-03-27T08:19:07.924Z,5.30
2019-03-27T08:21:31.383Z,5.20
2019-03-27T08:23:58.175Z,6.33
2019-03-27T08:26:24.527Z,7.10
2019-03-27T08:28:51.044Z,6.50
2019-03-27T08:31:17.861Z,6.90
2019-03-27T08:33:44.300Z,6.58
2019-03-27T08:36:10.945Z,6.65
2019-03-27T08:38:37.449Z,7.40
2019-03-27T08:41:04.276Z,6.97
2019-03-27T08:43:30.712Z,7.05
2019-03-27T08:45:57.751Z,7.92
2019-03-27T08:48:24.938Z,6.50
2019-03-27T08:50:51.584Z,6.05
2019-03-27T08:53:18.037Z,6.90
2019-03-27T08:55:44.536Z,6.67
2019-03-27T08:58:11.075Z,8.80
2019-03-27T09:00:48.154Z,7.25
2019-03-27T09:03:15.634Z,8.55
2019-03-27T09:05:42.874Z,9.30
2019-03-27T09:08:09.713Z,10.43
2019-03-27T09:10:36.344Z,8.08
2019-03-27T09:13:03.194Z,4.47
2019-03-27T09:15:29.986Z,7.15
2019-03-27T09:17:56.461Z,5.58
2019-03-27T09:20:22.996Z,7.50
2019-03-27T09:22:49.398Z,7.10
2019-03-27T09:25:16.143Z,6.47
2019-03-27T09:27:42.624Z,7.37
2019-03-27T09:30:11.446Z,8.43
2019-03-27T09:32:37.922Z,7.28
2019-03-27T09:35:05.136Z,5.60
2019-03-27T09:37:31.668Z,4.67
2019-03-27T09:39:58.328Z,6.55
2019-03-27T09:42:24.619Z,8.75
2019-03-27T09:44:50.978Z,6.95
2019-03-27T09:47:17.522Z,7.20
2019-03-27T09:49:49.374Z,8.45
2019-03-27T09:52:12.174Z,8.33
2019-03-27T09:54:38.801Z,10.03
2019-03-27T09:57:05.210Z,6.10
2019-03-27T09:59:31.641Z,6.28
2019-03-27T10:01:58.138Z,6.37
2019-03-27T10:04:24.513Z,5.80
2019-03-27T10:06:51.544Z,7.70
2019-03-27T10:09:18.035Z,7.62
2019-03-27T10:11:44.602Z,8.78
2019-03-27T10:14:10.989Z,10.65
2019-03-27T10:16:37.628Z,7.25
2019-03-27T10:19:04.314Z,7.80
2019-03-27T10:21:30.858Z,7.50
2019-03-27T10:23:57.599Z,7.33
2019-03-27T10:26:23.992Z,6.80
2019-03-27T10:28:50.364Z,6.53
2019-03-27T10:31:16.749Z,7.55
2019-03-27T10:33:43.275Z,8.18
2019-03-27T10:36:10.359Z,5.70
2019-03-27T10:38:36.755Z,9.10
2019-03-27T10:41:03.332Z,8.53
2019-03-27T10:43:30.191Z,8.38
2019-03-27T10:45:56.567Z,9.23
2019-03-27T10:48:23.205Z,8.88
2019-03-27T10:50:50.973Z,7.97
2019-03-27T10:53:17.311Z,6.97
2019-03-27T10:55:43.819Z,8.15
2019-03-27T10:58:10.188Z,14.68
2019-03-27T11:00:37.068Z,10.20
2019-03-27T11:03:03.646Z,9.55
2019-03-27T11:05:30.063Z,12.23
2019-03-27T11:07:56.654Z,9.63
2019-03-27T11:10:23.159Z,9.85
2019-03-27T11:12:49.797Z,10.70
2019-03-27T11:15:16.567Z,10.10
2019-03-27T11:17:43.054Z,10.18
2019-03-27T11:20:10.274Z,9.35
2019-03-27T11:22:36.795Z,9.83
2019-03-27T11:25:05.381Z,8.03
2019-03-27T11:27:31.819Z,8.88
2019-03-27T11:29:58.599Z,11.30
2019-03-27T11:32:24.979Z,13.25
2019-03-27T11:34:51.289Z,12.30
2019-03-27T11:37:17.563Z,13.48
2019-03-27T11:39:44.220Z,8.20
2019-03-27T11:42:10.751Z,11.70
2019-03-27T11:44:37.197Z,11.15
2019-03-27T11:47:03.618Z,11.53
2019-03-27T11:49:30.162Z,12.80
2019-03-27T11:51:56.702Z,14.25
2019-03-27T11:54:23.079Z,32.67
2019-03-27T11:56:49.734Z,26.10
2019-03-27T11:59:16.107Z,26.07
2019-03-27T12:01:43.928Z,21.48
2019-03-27T12:04:10.488Z,20.68
2019-03-27T12:06:36.971Z,16.12
2019-03-27T12:09:06.083Z,11.97
2019-03-27T12:11:32.384Z,11.57
2019-03-27T12:13:58.956Z,13.72
2019-03-27T12:16:25.654Z,15.53
2019-03-27T12:18:51.981Z,16.02
2019-03-27T12:21:18.460Z,12.98
2019-03-27T12:23:44.883Z,13.62
2019-03-27T12:26:11.265Z,14.68
2019-03-27T12:28:37.709Z,27.90
2019-03-27T12:31:04.713Z,21.17
2019-03-27T12:33:31.107Z,18.60
2019-03-27T12:35:57.703Z,18.07
2019-03-27T12:38:24.488Z,12.58
2019-03-27T12:40:50.770Z,10.60
2019-03-27T12:43:17.189Z,11.22
2019-03-27T12:45:43.558Z,26.62
2019-03-27T12:48:10.551Z,15.20
2019-03-27T12:50:44.071Z,31.02
2019-03-27T12:53:09.204Z,13.30
2019-03-27T12:55:35.719Z,11.53
2019-03-27T12:58:03.032Z,11.73
2019-03-27T13:00:29.917Z,12.23
2019-03-27T13:02:56.396Z,32.05
2019-03-27T13:05:22.871Z,17.02
2019-03-27T13:07:50.337Z,29.55
2019-03-27T13:10:17.115Z,34.43
2019-03-27T13:12:43.995Z,13.13
2019-03-27T13:15:10.724Z,20.40
2019-03-27T13:17:37.103Z,16.60
2019-03-27T13:20:08.354Z,13.15
2019-03-27T13:22:38.032Z,12.18
2019-03-27T13:25:05.384Z,13.20
2019-03-27T13:27:31.907Z,10.23
2019-03-27T13:29:58.472Z,11.43
2019-03-27T13:32:25.003Z,10.65
2019-03-27T13:34:51.786Z,11.38
2019-03-27T13:37:18.223Z,26.42
2019-03-27T13:39:44.694Z,19.17
2019-03-27T13:42:11.285Z,15.48
2019-03-27T13:44:37.780Z,13.20
2019-03-27T13:47:04.455Z,76.20
2019-03-27T13:49:30.996Z,57.35
2019-03-27T13:51:57.426Z,21.17
2019-03-27T13:54:23.743Z,31.23
2019-03-27T13:56:50.543Z,25.62
2019-03-27T13:59:16.960Z,28.25
2019-03-27T14:01:43.415Z,62.25
2019-03-27T14:04:09.812Z,58.83
2019-03-27T14:06:36.231Z,54.42
2019-03-27T14:09:06.188Z,18.95
2019-03-27T14:11:32.611Z,20.15
2019-03-27T14:14:10.515Z,26.02
2019-03-27T14:16:27.588Z,16.17
2019-03-27T14:18:54.337Z,20.60
2019-03-27T14:21:23.334Z,23.87
2019-03-27T14:23:49.036Z,21.68
2019-03-27T14:26:15.514Z,20.80
2019-03-27T14:28:41.933Z,18.25
2019-03-27T14:31:09.200Z,24.40
2019-03-27T14:33:35.616Z,18.30
2019-03-27T14:36:02.377Z,12.80
2019-03-27T14:38:28.857Z,14.87
2019-03-27T14:40:55.428Z,30.95
2019-03-27T14:43:21.940Z,34.63
2019-03-27T14:45:48.867Z,93.85
2019-03-27T14:48:15.487Z,23.67
2019-03-27T14:50:41.880Z,86.97
2019-03-27T14:53:08.692Z,41.60
2019-03-27T14:55:35.012Z,41.55
2019-03-27T14:58:01.455Z,32.42
2019-03-27T15:00:28.135Z,25.80
2019-03-27T15:02:54.514Z,30.35
2019-03-27T15:05:21.208Z,23.62
2019-03-27T15:07:48.195Z,26.68
2019-03-27T15:10:14.926Z,45.73
2019-03-27T15:12:43.023Z,22.27
2019-03-27T15:15:10.554Z,21.95
2019-03-27T15:17:37.955Z,24.37
2019-03-27T15:20:06.981Z,40.30
2019-03-27T15:22:33.989Z,27.48
2019-03-27T15:25:00.492Z,37.42
2019-03-27T15:27:27.109Z,26.12
2019-03-27T15:29:53.631Z,40.33
2019-03-27T15:32:20.378Z,26.37
2019-03-27T15:34:46.665Z,18.05
2019-03-27T15:37:13.083Z,28.27
2019-03-27T15:39:39.886Z,83.82
2019-03-27T15:42:09.178Z,122.40
2019-03-27T15:44:34.723Z,128.00
2019-03-27T15:47:01.142Z,145.97
2019-03-27T15:49:27.532Z,149.82
2019-03-27T15:51:54.051Z,148.00
2019-03-27T15:54:20.502Z,77.27
2019-03-27T15:56:46.886Z,55.80
2019-03-27T15:59:13.605Z,71.12
2019-03-27T16:01:39.998Z,44.73
2019-03-27T16:04:06.767Z,103.62
2019-03-27T16:06:33.273Z,101.00
2019-03-27T16:08:59.703Z,133.45
2019-03-27T16:11:26.118Z,137.05
2019-03-27T16:13:52.513Z,103.75
2019-03-27T16:16:19.008Z,101.40
2019-03-27T16:18:45.775Z,104.92
2019-03-27T16:21:12.285Z,123.30
2019-03-27T16:23:38.678Z,117.97
2019-03-27T16:26:05.297Z,136.18
2019-03-27T16:28:31.668Z,130.90
2019-03-27T16:30:58.482Z,125.22
2019-03-27T16:33:24.863Z,84.90
2019-03-27T16:35:51.269Z,94.92
2019-03-27T16:38:17.688Z,94.60
2019-03-27T16:40:45.820Z,75.87
2019-03-27T16:43:12.426Z,68.22
2019-03-27T16:45:38.846Z,64.22
2019-03-27T16:48:05.539Z,70.67
2019-03-27T16:50:32.896Z,76.97
2019-03-27T16:53:03.709Z,210.50
2019-03-27T16:55:28.312Z,282.05
2019-03-27T16:57:54.801Z,300.43
2019-03-27T17:00:21.527Z,340.43
2019-03-27T17:02:48.063Z,371.87
2019-03-27T17:05:15.931Z,262.00
2019-03-27T17:07:42.700Z,250.78
2019-03-27T17:10:10.101Z,206.50
2019-03-27T17:12:36.722Z,165.82
2019-03-27T17:15:05.148Z,149.12
2019-03-27T17:17:31.580Z,165.15
2019-03-27T17:19:58.070Z,176.65
2019-03-27T17:22:24.449Z,197.65
2019-03-27T17:24:50.981Z,303.80
2019-03-27T17:27:17.389Z,355.70
2019-03-27T17:29:44.012Z,315.07
2019-03-27T17:32:10.614Z,179.80
2019-03-27T17:34:37.055Z,141.70
2019-03-27T17:37:03.490Z,127.25
2019-03-27T17:39:29.910Z,156.12
2019-03-27T17:41:56.324Z,205.35
2019-03-27T17:44:22.768Z,129.32
2019-03-27T17:46:50.273Z,173.25
2019-03-27T17:49:16.941Z,188.18
2019-03-27T17:51:43.519Z,195.40
2019-03-27T17:54:19.945Z,190.47
2019-03-27T17:56:38.539Z,238.22
2019-03-27T17:59:05.025Z,209.83
2019-03-27T18:01:31.387Z,221.75
2019-03-27T18:03:57.965Z,178.85
2019-03-27T18:06:24.570Z,137.15
2019-03-27T18:08:51.089Z,134.87
2019-03-27T18:11:17.615Z,97.75
2019-03-27T18:13:43.891Z,106.75
2019-03-27T18:16:10.606Z,121.42
2019-03-27T18:18:37.038Z,93.47
2019-03-27T18:21:03.908Z,79.65
2019-03-27T18:23:30.548Z,77.97
2019-03-27T18:25:57.024Z,74.22
2019-03-27T18:28:25.145Z,140.60
2019-03-27T18:30:51.530Z,176.47
2019-03-27T18:33:18.090Z,192.55
2019-03-27T18:35:44.661Z,200.65
2019-03-27T18:38:11.067Z,200.57
2019-03-27T18:40:38.043Z,202.82
2019-03-27T18:43:04.637Z,185.15
2019-03-27T18:45:31.321Z,199.00
2019-03-27T18:47:57.867Z,216.33
2019-03-27T18:50:24.469Z,242.95
2019-03-27T18:52:50.874Z,257.52
2019-03-27T18:55:26.272Z,275.05
2019-03-27T18:57:59.037Z,264.48
2019-03-27T19:00:14.701Z,276.15
2019-03-27T19:02:41.411Z,277.52
2019-03-27T19:05:08.794Z,277.38
2019-03-27T19:07:35.546Z,274.88
2019-03-27T19:10:06.324Z,272.70
2019-03-27T19:12:32.734Z,268.48
2019-03-27T19:14:59.220Z,270.52
2019-03-27T19:17:26.545Z,270.15
2019-03-27T19:19:53.152Z,264.42
2019-03-27T19:22:19.741Z,269.23
2019-03-27T19:24:46.132Z,271.77
2019-03-27T19:27:12.585Z,264.75
2019-03-27T19:29:39.198Z,280.60
2019-03-27T19:32:05.694Z,289.02
2019-03-27T19:34:32.574Z,290.98
2019-03-27T19:36:58.975Z,288.20
2019-03-27T19:39:25.599Z,275.82
2019-03-27T19:41:52.322Z,276.90
2019-03-27T19:44:18.977Z,276.05
2019-03-27T19:46:45.317Z,260.73
2019-03-27T19:49:11.695Z,268.02
2019-03-27T19:51:38.634Z,263.85
2019-03-27T19:54:05.027Z,270.45
2019-03-27T19:56:31.462Z,250.60
2019-03-27T19:58:57.866Z,243.90
2019-03-27T20:01:24.503Z,231.35
2019-03-27T20:03:51.135Z,243.02
2019-03-27T20:06:17.616Z,251.18
2019-03-27T20:08:44.000Z,232.40
2019-03-27T20:11:10.487Z,229.90
2019-03-27T20:13:37.178Z,218.45
2019-03-27T20:16:03.699Z,223.30
2019-03-27T20:18:30.279Z,224.27
2019-03-27T20:20:56.935Z,227.62
2019-03-27T20:23:23.350Z,232.12
2019-03-27T20:25:49.648Z,226.18
2019-03-27T20:28:16.041Z,232.45
2019-03-27T20:30:42.911Z,233.45
2019-03-27T20:33:09.441Z,222.90
2019-03-27T20:35:35.880Z,214.45
2019-03-27T20:38:02.597Z,223.45
2019-03-27T20:40:29.179Z,220.22
2019-03-27T20:42:55.921Z,215.15
2019-03-27T20:45:22.567Z,205.32
2019-03-27T20:47:49.340Z,221.22
2019-03-27T20:50:16.127Z,227.75
2019-03-27T20:52:42.579Z,206.90
2019-03-27T20:55:09.771Z,213.62
2019-03-27T20:57:36.483Z,202.20
2019-03-27T21:00:07.421Z,215.65
2019-03-27T21:02:34.063Z,200.32
2019-03-27T21:05:00.715Z,176.45
2019-03-27T21:07:27.139Z,182.82
2019-03-27T21:09:53.576Z,189.20
2019-03-27T21:12:20.109Z,181.63
2019-03-27T21:14:46.591Z,192.30
2019-03-27T21:17:13.156Z,191.30
2019-03-27T21:19:39.564Z,188.18
2019-03-27T21:22:06.066Z,205.52
2019-03-27T21:24:32.452Z,197.72
2019-03-27T21:26:58.868Z,179.03
2019-03-27T21:29:25.390Z,176.93
2019-03-27T21:31:51.692Z,165.75
2019-03-27T21:34:18.601Z,160.67
2019-03-27T21:36:44.987Z,185.40
2019-03-27T21:39:11.706Z,175.95
2019-03-27T21:41:38.236Z,170.72
2019-03-27T21:44:04.732Z,185.78
2019-03-27T21:46:31.130Z,162.18
2019-03-27T21:48:57.507Z,180.10
2019-03-27T21:51:24.164Z,177.57
2019-03-27T21:53:50.923Z,170.45
2019-03-27T21:56:17.811Z,173.50
2019-03-27T21:58:44.495Z,179.63
2019-03-27T22:01:10.869Z,158.50
2019-03-27T22:03:37.355Z,166.10
2019-03-27T22:06:03.990Z,165.97
2019-03-27T22:08:30.426Z,157.35
2019-03-27T22:10:56.826Z,158.03
2019-03-27T22:13:23.255Z,159.10
2019-03-27T22:15:49.935Z,152.25
2019-03-27T22:18:16.375Z,141.95
2019-03-27T22:20:42.887Z,163.57
2019-03-27T22:23:09.320Z,168.07
2019-03-27T22:25:36.633Z,168.80
2019-03-27T22:28:03.270Z,190.82
2019-03-27T22:30:29.646Z,191.28
2019-03-27T22:32:56.245Z,192.62
2019-03-27T22:35:22.662Z,210.63
2019-03-27T22:37:49.186Z,205.95
2019-03-27T22:40:15.666Z,202.90
2019-03-27T22:42:41.938Z,210.20
2019-03-27T22:45:08.924Z,212.75
2019-03-27T22:47:35.334Z,194.52
2019-03-27T22:50:07.754Z,204.63
2019-03-27T22:52:32.842Z,183.62
2019-03-27T22:54:59.221Z,173.60
2019-03-27T22:57:25.654Z,180.12
2019-03-27T22:59:52.322Z,169.90
2019-03-27T23:02:18.908Z,157.12
2019-03-27T23:04:45.279Z,162.62
2019-03-27T23:07:11.726Z,150.30
2019-03-27T23:09:38.423Z,139.10
2019-03-27T23:12:05.022Z,150.55
2019-03-27T23:14:31.551Z,140.68
2019-03-27T23:16:58.026Z,111.40
2019-03-27T23:19:24.565Z,102.65
2019-03-27T23:21:51.049Z,107.78
2019-03-27T23:24:17.557Z,107.75
2019-03-27T23:26:43.933Z,104.92
2019-03-27T23:29:10.610Z,114.82
2019-03-27T23:31:37.110Z,122.53
2019-03-27T23:34:03.688Z,108.87
2019-03-27T23:36:30.823Z,112.37
2019-03-27T23:38:57.235Z,122.00
2019-03-27T23:41:23.750Z,128.40
2019-03-27T23:43:50.070Z,123.50
2019-03-27T23:46:16.655Z,128.27
2019-03-27T23:48:43.267Z,122.02
2019-03-27T23:51:09.700Z,143.87
2019-03-27T23:53:36.115Z,195.12
2019-03-27T23:56:15.526Z,250.45
2019-03-27T23:58:31.026Z,150.42
